Hicksville, New York
Current Conditions -  °F | °C
As of 5:33 AM on Wednesday 22 Oct 2014 (Local Time) from KFRG Reporting Station
Overcast Overcast  
Wind Chill: 57°   Ceiling: 1200
Heat Index: 57°   Visibility: 10mi
Dew Point: 54°   Wind: 14mph
Humidity: 89%   Direction: 40°NE
Pressure: 29.87"   Gusts: 22mph
Location:  40.76°N, 73.53°W
Report Text: KFRG 220933Z AUTO 04012G19KT 10SM BKN012 BKN018 OVC025 14/12 A2987 RMK AO2 LTG DSNT S-W T01390122
Loading
Personal Weather Stations






























Interactive Weather Map
Tropical Storm Tracking
New forecast layout! Learn more

10-Day Weather Forecast

Advertisements
Track Severe Weather on mobile